sensor_id;sensor_type;location;lat;lon;timestamp;pressure;altitude;pressure_sealevel;temperature;humidity
29385;BME280;16367;48.736;9.218;2023-01-30T00:01:27;-23098.97;;;-2.18;100.00
29385;BME280;16367;48.736;9.218;2023-01-30T00:03:30;-23103.47;;;-2.04;100.00
29385;BME280;16367;48.736;9.218;2023-01-30T00:05:34;-23103.94;;;-2.02;100.00
29385;BME280;16367;48.736;9.218;2023-01-30T00:07:37;-23101.69;;;-2.09;100.00
29385;BME280;16367;48.736;9.218;2023-01-30T00:09:40;-23098.34;;;-2.20;100.00
29385;BME280;16367;48.736;9.218;2023-01-30T00:11:42;-23101.06;;;-2.11;100.00
29385;BME280;16367;48.736;9.218;2023-01-30T00:13:46;-23100.09;;;-2.14;100.00
29385;BME280;16367;48.736;9.218;2023-01-30T00:15:49;-23100.25;;;-2.14;100.00
29385;BME280;16367;48.736;9.218;2023-01-30T00:17:53;-23101.06;;;-2.11;100.00
29385;BME280;16367;48.736;9.218;2023-01-30T00:19:56;-23102.66;;;-2.06;100.00
29385;BME280;16367;48.736;9.218;2023-01-30T00:21:58;-23101.69;;;-2.09;100.00
29385;BME280;16367;48.736;9.218;2023-01-30T00:24:01;-23095.78;;;-2.28;100.00
29385;BME280;16367;48.736;9.218;2023-01-30T00:26:04;-23092.75;;;-2.38;100.00
29385;BME280;16367;48.736;9.218;2023-01-30T00:28:07;-23089.69;;;-2.47;100.00
29385;BME280;16367;48.736;9.218;2023-01-30T00:30:11;-23091.78;;;-2.41;100.00
29385;BME280;16367;48.736;9.218;2023-01-30T00:32:13;-23094.19;;;-2.33;100.00
29385;BME280;16367;48.736;9.218;2023-01-30T00:34:17;-23094.34;;;-2.33;100.00
29385;BME280;16367;48.736;9.218;2023-01-30T00:36:20;-23096.25;;;-2.27;100.00
29385;BME280;16367;48.736;9.218;2023-01-30T00:38:23;-23099.16;;;-2.17;100.00
29385;BME280;16367;48.736;9.218;2023-01-30T00:40:27;-23099.16;;;-2.17;100.00
29385;BME280;16367;48.736;9.218;2023-01-30T00:42:30;-23098.97;;;-2.18;100.00
29385;BME280;16367;48.736;9.218;2023-01-30T00:44:50;-23096.91;;;-2.24;100.00
29385;BME280;16367;48.736;9.218;2023-01-30T00:47:10;-23096.91;;;-2.24;100.00
29385;BME280;16367;48.736;9.218;2023-01-30T00:49:13;-23099.94;;;-2.15;100.00
29385;BME280;16367;48.736;9.218;2023-01-30T00:51:17;-23096.91;;;-2.24;100.00
29385;BME280;16367;48.736;9.218;2023-01-30T00:53:20;-23099.16;;;-2.17;100.00
29385;BME280;16367;48.736;9.218;2023-01-30T00:55:23;-23100.91;;;-2.12;100.00
29385;BME280;16367;48.736;9.218;2023-01-30T00:57:26;-23100.09;;;-2.14;100.00
29385;BME280;16367;48.736;9.218;2023-01-30T00:59:28;-23098.81;;;-2.18;100.00
29385;BME280;16367;48.736;9.218;2023-01-30T01:01:31;-23100.41;;;-2.13;100.00
29385;BME280;16367;48.736;9.218;2023-01-30T01:03:34;-23098.97;;;-2.18;100.00
29385;BME280;16367;48.736;9.218;2023-01-30T01:05:37;-23099.63;;;-2.16;100.00
29385;BME280;16367;48.736;9.218;2023-01-30T01:07:41;-23103.94;;;-2.02;100.00
29385;BME280;16367;48.736;9.218;2023-01-30T01:09:43;-23106.34;;;-1.95;100.00
29385;BME280;16367;48.736;9.218;2023-01-30T01:11:46;-23107.13;;;-1.92;100.00
29385;BME280;16367;48.736;9.218;2023-01-30T01:13:50;-23106.66;;;-1.94;100.00
29385;BME280;16367;48.736;9.218;2023-01-30T01:15:53;-23107.47;;;-1.91;100.00
29385;BME280;16367;48.736;9.218;2023-01-30T01:17:56;-23107.13;;;-1.92;100.00
29385;BME280;16367;48.736;9.218;2023-01-30T01:19:59;-23106.66;;;-1.94;100.00
29385;BME280;16367;48.736;9.218;2023-01-30T01:22:01;-23107.78;;;-1.90;100.00
29385;BME280;16367;48.736;9.218;2023-01-30T01:24:08;-23104.75;;;-2.00;100.00
29385;BME280;16367;48.736;9.218;2023-01-30T01:26:12;-23102.34;;;-2.07;100.00
29385;BME280;16367;48.736;9.218;2023-01-30T01:28:15;-23104.25;;;-2.01;100.00
29385;BME280;16367;48.736;9.218;2023-01-30T01:30:22;-23106.97;;;-1.93;100.00
29385;BME280;16367;48.736;9.218;2023-01-30T01:32:25;-23102.66;;;-2.06;100.00
29385;BME280;16367;48.736;9.218;2023-01-30T01:34:27;-23100.41;;;-2.13;100.00
29385;BME280;16367;48.736;9.218;2023-01-30T01:36:30;-23102.19;;;-2.08;100.00
29385;BME280;16367;48.736;9.218;2023-01-30T01:38:53;-23104.91;;;-1.99;100.00
29385;BME280;16367;48.736;9.218;2023-01-30T01:40:57;-23104.91;;;-1.99;100.00
29385;BME280;16367;48.736;9.218;2023-01-30T01:43:07;-23103.31;;;-2.04;100.00
29385;BME280;16367;48.736;9.218;2023-01-30T01:45:17;-23103.63;;;-2.03;100.00
29385;BME280;16367;48.736;9.218;2023-01-30T01:47:21;-23100.25;;;-2.14;100.00
29385;BME280;16367;48.736;9.218;2023-01-30T01:49:28;-23098.19;;;-2.20;100.00
29385;BME280;16367;48.736;9.218;2023-01-30T01:51:34;-23098.81;;;-2.18;100.00
29385;BME280;16367;48.736;9.218;2023-01-30T01:53:40;-23102.97;;;-2.05;100.00
29385;BME280;16367;48.736;9.218;2023-01-30T01:55:48;-23101.38;;;-2.10;100.00
29385;BME280;16367;48.736;9.218;2023-01-30T01:57:55;-23102.66;;;-2.06;100.00
29385;BME280;16367;48.736;9.218;2023-01-30T02:00:02;-23102.34;;;-2.07;100.00
29385;BME280;16367;48.736;9.218;2023-01-30T02:02:10;-23103.63;;;-2.03;100.00
29385;BME280;16367;48.736;9.218;2023-01-30T02:04:14;-23101.88;;;-2.09;100.00
29385;BME280;16367;48.736;9.218;2023-01-30T02:06:38;-23099.78;;;-2.15;100.00
29385;BME280;16367;48.736;9.218;2023-01-30T02:08:45;-23102.03;;;-2.08;100.00
29385;BME280;16367;48.736;9.218;2023-01-30T02:10:53;-23102.03;;;-2.08;100.00
29385;BME280;16367;48.736;9.218;2023-01-30T02:12:59;-23105.06;;;-1.99;100.00
29385;BME280;16367;48.736;9.218;2023-01-30T02:15:03;-23101.38;;;-2.10;100.00
29385;BME280;16367;48.736;9.218;2023-01-30T02:17:06;-23105.06;;;-1.99;100.00
29385;BME280;16367;48.736;9.218;2023-01-30T02:19:18;-23108.09;;;-1.89;100.00
29385;BME280;16367;48.736;9.218;2023-01-30T02:21:57;-23100.75;;;-2.12;100.00
29385;BME280;16367;48.736;9.218;2023-01-30T02:24:28;-23103.31;;;-2.04;100.00
29385;BME280;16367;48.736;9.218;2023-01-30T02:26:58;-23096.25;;;-2.27;100.00
29385;BME280;16367;48.736;9.218;2023-01-30T02:31:49;-23094.97;;;-2.31;100.00
29385;BME280;16367;48.736;9.218;2023-01-30T02:34:04;-23092.41;;;-2.39;100.00
29385;BME280;16367;48.736;9.218;2023-01-30T02:36:16;-23090.19;;;-2.46;100.00
29385;BME280;16367;48.736;9.218;2023-01-30T02:38:34;-23090.66;;;-2.44;100.00
29385;BME280;16367;48.736;9.218;2023-01-30T02:40:48;-23088.91;;;-2.50;100.00
29385;BME280;16367;48.736;9.218;2023-01-30T02:42:59;-23094.97;;;-2.31;100.00
29385;BME280;16367;48.736;9.218;2023-01-30T02:45:10;-23092.41;;;-2.39;100.00
29385;BME280;16367;48.736;9.218;2023-01-30T02:47:17;-23090.81;;;-2.44;100.00
29385;BME280;16367;48.736;9.218;2023-01-30T02:49:29;-23086.97;;;-2.56;100.00
29385;BME280;16367;48.736;9.218;2023-01-30T02:51:35;-23085.06;;;-2.62;100.00
29385;BME280;16367;48.736;9.218;2023-01-30T02:53:38;-23084.09;;;-2.65;100.00
29385;BME280;16367;48.736;9.218;2023-01-30T02:55:42;-23082.81;;;-2.69;100.00
29385;BME280;16367;48.736;9.218;2023-01-30T02:57:44;-23081.22;;;-2.74;100.00
29385;BME280;16367;48.736;9.218;2023-01-30T02:59:48;-23089.22;;;-2.49;100.00
29385;BME280;16367;48.736;9.218;2023-01-30T03:02:27;-23088.91;;;-2.50;100.00
29385;BME280;16367;48.736;9.218;2023-01-30T03:04:49;-23084.09;;;-2.65;100.00
29385;BME280;16367;48.736;9.218;2023-01-30T03:07:04;-23080.09;;;-2.77;100.00
29385;BME280;16367;48.736;9.218;2023-01-30T03:09:15;-23075.78;;;-2.91;100.00
29385;BME280;16367;48.736;9.218;2023-01-30T03:11:23;-23072.09;;;-3.03;100.00
29385;BME280;16367;48.736;9.218;2023-01-30T03:13:42;-23070.00;;;-3.09;100.00
29385;BME280;16367;48.736;9.218;2023-01-30T03:15:49;-23067.13;;;-3.18;100.00
29385;BME280;16367;48.736;9.218;2023-01-30T03:17:55;-23068.09;;;-3.15;100.00
29385;BME280;16367;48.736;9.218;2023-01-30T03:19:58;-23071.44;;;-3.05;100.00
29385;BME280;16367;48.736;9.218;2023-01-30T03:22:01;-23074.16;;;-2.96;100.00
29385;BME280;16367;48.736;9.218;2023-01-30T03:24:05;-23075.78;;;-2.91;100.00
29385;BME280;16367;48.736;9.218;2023-01-30T03:26:13;-23076.41;;;-2.89;100.00
29385;BME280;16367;48.736;9.218;2023-01-30T03:28:19;-23077.06;;;-2.87;100.00
29385;BME280;16367;48.736;9.218;2023-01-30T03:30:24;-23078.31;;;-2.83;100.00
29385;BME280;16367;48.736;9.218;2023-01-30T03:32:26;-23080.56;;;-2.76;100.00
29385;BME280;16367;48.736;9.218;2023-01-30T03:34:30;-23083.13;;;-2.68;100.00
29385;BME280;16367;48.736;9.218;2023-01-30T03:36:33;-23085.06;;;-2.62;100.00
29385;BME280;16367;48.736;9.218;2023-01-30T03:38:36;-23086.34;;;-2.58;100.00
29385;BME280;16367;48.736;9.218;2023-01-30T03:40:39;-23088.41;;;-2.51;100.00
29385;BME280;16367;48.736;9.218;2023-01-30T03:42:42;-23091.13;;;-2.43;100.00
29385;BME280;16367;48.736;9.218;2023-01-30T03:44:45;-23092.09;;;-2.40;100.00
29385;BME280;16367;48.736;9.218;2023-01-30T03:46:48;-23092.41;;;-2.39;100.00
29385;BME280;16367;48.736;9.218;2023-01-30T03:48:50;-23093.53;;;-2.35;100.00
29385;BME280;16367;48.736;9.218;2023-01-30T03:50:54;-23094.34;;;-2.33;100.00
29385;BME280;16367;48.736;9.218;2023-01-30T03:52:57;-23095.31;;;-2.30;100.00
29385;BME280;16367;48.736;9.218;2023-01-30T03:55:00;-23091.78;;;-2.41;100.00
29385;BME280;16367;48.736;9.218;2023-01-30T03:57:03;-23091.47;;;-2.42;100.00
29385;BME280;16367;48.736;9.218;2023-01-30T03:59:06;-23090.81;;;-2.44;100.00
29385;BME280;16367;48.736;9.218;2023-01-30T04:01:09;-23092.75;;;-2.38;100.00
29385;BME280;16367;48.736;9.218;2023-01-30T04:03:12;-23093.38;;;-2.36;100.00
29385;BME280;16367;48.736;9.218;2023-01-30T04:05:16;-23095.47;;;-2.29;100.00
29385;BME280;16367;48.736;9.218;2023-01-30T04:07:21;-23099.16;;;-2.17;100.00
29385;BME280;16367;48.736;9.218;2023-01-30T04:09:24;-23098.97;;;-2.18;100.00
29385;BME280;16367;48.736;9.218;2023-01-30T04:11:26;-23102.34;;;-2.07;100.00
29385;BME280;16367;48.736;9.218;2023-01-30T04:13:29;-23101.88;;;-2.09;100.00
29385;BME280;16367;48.736;9.218;2023-01-30T04:15:32;-23102.34;;;-2.07;100.00
29385;BME280;16367;48.736;9.218;2023-01-30T04:17:35;-23107.78;;;-1.90;100.00
29385;BME280;16367;48.736;9.218;2023-01-30T04:19:37;-23108.41;;;-1.88;100.00
29385;BME280;16367;48.736;9.218;2023-01-30T04:21:40;-23106.50;;;-1.94;100.00
29385;BME280;16367;48.736;9.218;2023-01-30T04:23:44;-23108.59;;;-1.88;100.00
29385;BME280;16367;48.736;9.218;2023-01-30T04:25:47;-23109.06;;;-1.86;100.00
29385;BME280;16367;48.736;9.218;2023-01-30T04:27:50;-23111.94;;;-1.77;100.00
29385;BME280;16367;48.736;9.218;2023-01-30T04:29:53;-23112.25;;;-1.76;100.00
29385;BME280;16367;48.736;9.218;2023-01-30T04:31:55;-23112.56;;;-1.75;100.00
29385;BME280;16367;48.736;9.218;2023-01-30T04:33:58;-23111.13;;;-1.80;100.00
29385;BME280;16367;48.736;9.218;2023-01-30T04:36:02;-23111.78;;;-1.78;100.00
29385;BME280;16367;48.736;9.218;2023-01-30T04:38:05;-23112.91;;;-1.74;100.00
29385;BME280;16367;48.736;9.218;2023-01-30T04:40:10;-23112.56;;;-1.75;100.00
29385;BME280;16367;48.736;9.218;2023-01-30T04:42:13;-23111.47;;;-1.79;100.00
29385;BME280;16367;48.736;9.218;2023-01-30T04:44:16;-23112.56;;;-1.75;100.00
29385;BME280;16367;48.736;9.218;2023-01-30T04:46:19;-23113.69;;;-1.72;100.00
29385;BME280;16367;48.736;9.218;2023-01-30T04:48:23;-23116.91;;;-1.62;100.00
29385;BME280;16367;48.736;9.218;2023-01-30T04:50:26;-23118.66;;;-1.56;100.00
29385;BME280;16367;48.736;9.218;2023-01-30T04:52:29;-23118.66;;;-1.56;100.00
29385;BME280;16367;48.736;9.218;2023-01-30T04:54:32;-23121.84;;;-1.46;100.00
29385;BME280;16367;48.736;9.218;2023-01-30T04:56:36;-23123.47;;;-1.41;100.00
29385;BME280;16367;48.736;9.218;2023-01-30T04:58:39;-23124.75;;;-1.37;100.00
29385;BME280;16367;48.736;9.218;2023-01-30T05:00:41;-23124.41;;;-1.38;100.00
29385;BME280;16367;48.736;9.218;2023-01-30T05:02:44;-23129.22;;;-1.23;100.00
29385;BME280;16367;48.736;9.218;2023-01-30T05:04:52;-23130.19;;;-1.20;100.00
29385;BME280;16367;48.736;9.218;2023-01-30T05:06:55;-23128.91;;;-1.24;100.00
29385;BME280;16367;48.736;9.218;2023-01-30T05:08:59;-23128.91;;;-1.24;100.00
29385;BME280;16367;48.736;9.218;2023-01-30T05:11:01;-23130.34;;;-1.19;100.00
29385;BME280;16367;48.736;9.218;2023-01-30T05:13:05;-23129.06;;;-1.23;99.85
29385;BME280;16367;48.736;9.218;2023-01-30T05:15:09;-23133.38;;;-1.10;99.54
29385;BME280;16367;48.736;9.218;2023-01-30T05:17:12;-23130.66;;;-1.18;99.93
29385;BME280;16367;48.736;9.218;2023-01-30T05:19:15;-23130.19;;;-1.20;100.00
29385;BME280;16367;48.736;9.218;2023-01-30T05:21:19;-23131.31;;;-1.16;100.00
29385;BME280;16367;48.736;9.218;2023-01-30T05:23:22;-23133.69;;;-1.09;99.96
29385;BME280;16367;48.736;9.218;2023-01-30T05:25:25;-23131.94;;;-1.14;99.85
29385;BME280;16367;48.736;9.218;2023-01-30T05:27:28;-23133.84;;;-1.08;99.66
29385;BME280;16367;48.736;9.218;2023-01-30T05:29:32;-23134.66;;;-1.06;99.28
29385;BME280;16367;48.736;9.218;2023-01-30T05:31:35;-23133.06;;;-1.11;99.64
29385;BME280;16367;48.736;9.218;2023-01-30T05:33:39;-23135.13;;;-1.04;99.55
29385;BME280;16367;48.736;9.218;2023-01-30T05:35:45;-23134.66;;;-1.06;99.77
29385;BME280;16367;48.736;9.218;2023-01-30T05:37:49;-23132.72;;;-1.12;100.00
29385;BME280;16367;48.736;9.218;2023-01-30T05:39:51;-23132.72;;;-1.12;100.00
29385;BME280;16367;48.736;9.218;2023-01-30T05:41:54;-23130.97;;;-1.17;100.00
29385;BME280;16367;48.736;9.218;2023-01-30T05:43:57;-23132.41;;;-1.13;100.00
29385;BME280;16367;48.736;9.218;2023-01-30T05:46:03;-23129.84;;;-1.21;100.00
29385;BME280;16367;48.736;9.218;2023-01-30T05:48:06;-23130.81;;;-1.18;100.00
29385;BME280;16367;48.736;9.218;2023-01-30T05:50:10;-23133.53;;;-1.09;100.00
29385;BME280;16367;48.736;9.218;2023-01-30T05:52:12;-23132.56;;;-1.12;100.00
29385;BME280;16367;48.736;9.218;2023-01-30T05:54:15;-23129.69;;;-1.21;100.00
29385;BME280;16367;48.736;9.218;2023-01-30T05:56:18;-23130.50;;;-1.19;100.00
29385;BME280;16367;48.736;9.218;2023-01-30T05:58:21;-23132.41;;;-1.13;100.00
29385;BME280;16367;48.736;9.218;2023-01-30T06:00:25;-23135.63;;;-1.03;100.00
29385;BME280;16367;48.736;9.218;2023-01-30T06:02:29;-23134.66;;;-1.06;100.00
29385;BME280;16367;48.736;9.218;2023-01-30T06:04:31;-23133.69;;;-1.09;100.00
29385;BME280;16367;48.736;9.218;2023-01-30T06:06:35;-23133.06;;;-1.11;100.00
29385;BME280;16367;48.736;9.218;2023-01-30T06:08:38;-23133.53;;;-1.09;100.00
29385;BME280;16367;48.736;9.218;2023-01-30T06:10:41;-23133.69;;;-1.09;100.00
29385;BME280;16367;48.736;9.218;2023-01-30T06:12:44;-23134.50;;;-1.06;100.00
29385;BME280;16367;48.736;9.218;2023-01-30T06:14:46;-23133.69;;;-1.09;100.00
29385;BME280;16367;48.736;9.218;2023-01-30T06:16:49;-23134.03;;;-1.08;100.00
29385;BME280;16367;48.736;9.218;2023-01-30T06:18:53;-23134.66;;;-1.06;100.00
29385;BME280;16367;48.736;9.218;2023-01-30T06:20:56;-23133.69;;;-1.09;100.00
29385;BME280;16367;48.736;9.218;2023-01-30T06:22:59;-23134.66;;;-1.06;100.00
29385;BME280;16367;48.736;9.218;2023-01-30T06:25:02;-23133.69;;;-1.09;100.00
29385;BME280;16367;48.736;9.218;2023-01-30T06:27:05;-23135.28;;;-1.04;100.00
29385;BME280;16367;48.736;9.218;2023-01-30T06:29:07;-23135.94;;;-1.02;100.00
29385;BME280;16367;48.736;9.218;2023-01-30T06:31:10;-23133.38;;;-1.10;100.00
29385;BME280;16367;48.736;9.218;2023-01-30T06:33:13;-23132.56;;;-1.12;100.00
29385;BME280;16367;48.736;9.218;2023-01-30T06:35:17;-23131.78;;;-1.15;100.00
29385;BME280;16367;48.736;9.218;2023-01-30T06:37:20;-23132.72;;;-1.12;100.00
29385;BME280;16367;48.736;9.218;2023-01-30T06:39:23;-23133.06;;;-1.11;100.00
29385;BME280;16367;48.736;9.218;2023-01-30T06:41:26;-23131.13;;;-1.17;100.00
29385;BME280;16367;48.736;9.218;2023-01-30T06:43:28;-23131.78;;;-1.15;100.00
29385;BME280;16367;48.736;9.218;2023-01-30T06:45:31;-23134.66;;;-1.06;100.00
29385;BME280;16367;48.736;9.218;2023-01-30T06:47:43;-23132.41;;;-1.13;100.00
29385;BME280;16367;48.736;9.218;2023-01-30T06:49:46;-23132.56;;;-1.12;100.00
29385;BME280;16367;48.736;9.218;2023-01-30T06:51:51;-23135.47;;;-1.03;100.00
29385;BME280;16367;48.736;9.218;2023-01-30T06:53:53;-23135.28;;;-1.04;100.00
29385;BME280;16367;48.736;9.218;2023-01-30T06:55:57;-23139.94;;;-0.89;100.00
29385;BME280;16367;48.736;9.218;2023-01-30T06:58:01;-23140.41;;;-0.88;100.00
29385;BME280;16367;48.736;9.218;2023-01-30T07:00:05;-23140.09;;;-0.89;100.00
29385;BME280;16367;48.736;9.218;2023-01-30T07:02:11;-23141.06;;;-0.86;100.00
29385;BME280;16367;48.736;9.218;2023-01-30T07:04:14;-23143.59;;;-0.78;100.00
29385;BME280;16367;48.736;9.218;2023-01-30T07:06:17;-23143.28;;;-0.79;100.00
29385;BME280;16367;48.736;9.218;2023-01-30T07:08:21;-23145.53;;;-0.71;100.00
29385;BME280;16367;48.736;9.218;2023-01-30T07:10:24;-23145.06;;;-0.73;99.72
29385;BME280;16367;48.736;9.218;2023-01-30T07:12:29;-23147.75;;;-0.64;99.98
29385;BME280;16367;48.736;9.218;2023-01-30T07:14:32;-23145.53;;;-0.71;99.43
29385;BME280;16367;48.736;9.218;2023-01-30T07:16:34;-23147.44;;;-0.65;99.29
29385;BME280;16367;48.736;9.218;2023-01-30T07:18:37;-23147.44;;;-0.65;99.24
29385;BME280;16367;48.736;9.218;2023-01-30T07:20:40;-23148.25;;;-0.63;99.57
29385;BME280;16367;48.736;9.218;2023-01-30T07:22:48;-23149.53;;;-0.59;99.70
29385;BME280;16367;48.736;9.218;2023-01-30T07:24:52;-23149.69;;;-0.58;98.93
29385;BME280;16367;48.736;9.218;2023-01-30T07:26:55;-23148.88;;;-0.61;98.92
29385;BME280;16367;48.736;9.218;2023-01-30T07:28:58;-23150.00;;;-0.57;98.78
29385;BME280;16367;48.736;9.218;2023-01-30T07:31:00;-23151.28;;;-0.53;98.50
29385;BME280;16367;48.736;9.218;2023-01-30T07:33:04;-23150.00;;;-0.57;98.33
29385;BME280;16367;48.736;9.218;2023-01-30T07:35:08;-23151.91;;;-0.51;98.37
29385;BME280;16367;48.736;9.218;2023-01-30T07:37:11;-23151.59;;;-0.52;98.40
29385;BME280;16367;48.736;9.218;2023-01-30T07:39:14;-23152.25;;;-0.50;98.27
29385;BME280;16367;48.736;9.218;2023-01-30T07:41:19;-23152.56;;;-0.49;97.73
29385;BME280;16367;48.736;9.218;2023-01-30T07:43:22;-23150.16;;;-0.57;97.98
29385;BME280;16367;48.736;9.218;2023-01-30T07:45:27;-23146.50;;;-0.68;98.56
29385;BME280;16367;48.736;9.218;2023-01-30T07:47:31;-23149.38;;;-0.59;98.44
29385;BME280;16367;48.736;9.218;2023-01-30T07:49:34;-23148.41;;;-0.62;98.25
29385;BME280;16367;48.736;9.218;2023-01-30T07:51:37;-23150.31;;;-0.56;98.42
29385;BME280;16367;48.736;9.218;2023-01-30T07:53:40;-23150.00;;;-0.57;98.41
29385;BME280;16367;48.736;9.218;2023-01-30T07:55:43;-23149.84;;;-0.58;98.16
29385;BME280;16367;48.736;9.218;2023-01-30T07:57:47;-23153.19;;;-0.47;98.34
29385;BME280;16367;48.736;9.218;2023-01-30T07:59:50;-23154.81;;;-0.42;97.93
29385;BME280;16367;48.736;9.218;2023-01-30T08:01:53;-23154.81;;;-0.42;98.22
29385;BME280;16367;48.736;9.218;2023-01-30T08:03:57;-23155.13;;;-0.41;97.70
29385;BME280;16367;48.736;9.218;2023-01-30T08:06:00;-23154.16;;;-0.44;97.72
29385;BME280;16367;48.736;9.218;2023-01-30T08:08:03;-23153.53;;;-0.46;97.49
29385;BME280;16367;48.736;9.218;2023-01-30T08:10:06;-23157.69;;;-0.33;96.84
29385;BME280;16367;48.736;9.218;2023-01-30T08:12:12;-23157.19;;;-0.35;97.08
29385;BME280;16367;48.736;9.218;2023-01-30T08:14:16;-23157.69;;;-0.33;96.53
29385;BME280;16367;48.736;9.218;2023-01-30T08:16:19;-23153.38;;;-0.47;96.84
29385;BME280;16367;48.736;9.218;2023-01-30T08:18:23;-23156.41;;;-0.37;96.94
29385;BME280;16367;48.736;9.218;2023-01-30T08:20:26;-23156.88;;;-0.36;97.50
29385;BME280;16367;48.736;9.218;2023-01-30T08:22:29;-23160.72;;;-0.24;98.36
29385;BME280;16367;48.736;9.218;2023-01-30T08:24:32;-23161.84;;;-0.20;98.70
29385;BME280;16367;48.736;9.218;2023-01-30T08:26:35;-23160.41;;;-0.25;99.63
29385;BME280;16367;48.736;9.218;2023-01-30T08:28:38;-23167.59;;;-0.02;100.00
29385;BME280;16367;48.736;9.218;2023-01-30T08:30:42;-23167.91;;;-0.01;99.68
29385;BME280;16367;48.736;9.218;2023-01-30T08:32:45;-23170.63;;;0.08;99.42
29385;BME280;16367;48.736;9.218;2023-01-30T08:34:47;-23166.16;;;-0.07;100.00
29385;BME280;16367;48.736;9.218;2023-01-30T08:36:50;-23163.28;;;-0.16;100.00
29385;BME280;16367;48.736;9.218;2023-01-30T08:38:53;-23167.44;;;-0.03;100.00
29385;BME280;16367;48.736;9.218;2023-01-30T08:40:55;-23163.09;;;-0.16;100.00
29385;BME280;16367;48.736;9.218;2023-01-30T08:43:00;-23162.94;;;-0.17;100.00
29385;BME280;16367;48.736;9.218;2023-01-30T08:45:03;-23169.97;;;0.06;99.34
29385;BME280;16367;48.736;9.218;2023-01-30T08:47:07;-23167.09;;;-0.04;99.81
29385;BME280;16367;48.736;9.218;2023-01-30T08:49:10;-23169.97;;;0.06;99.56
29385;BME280;16367;48.736;9.218;2023-01-30T08:51:13;-23172.53;;;0.14;99.66
29385;BME280;16367;48.736;9.218;2023-01-30T08:53:16;-23176.22;;;0.25;98.82
29385;BME280;16367;48.736;9.218;2023-01-30T08:55:19;-23178.44;;;0.32;98.10
29385;BME280;16367;48.736;9.218;2023-01-30T08:57:22;-23172.69;;;0.14;97.59
29385;BME280;16367;48.736;9.218;2023-01-30T08:59:25;-23176.69;;;0.27;97.87
29385;BME280;16367;48.736;9.218;2023-01-30T09:01:28;-23177.16;;;0.28;96.73
29385;BME280;16367;48.736;9.218;2023-01-30T09:03:32;-23179.09;;;0.34;97.54
29385;BME280;16367;48.736;9.218;2023-01-30T09:05:35;-23182.59;;;0.45;97.00
29385;BME280;16367;48.736;9.218;2023-01-30T09:07:37;-23179.41;;;0.35;96.33
29385;BME280;16367;48.736;9.218;2023-01-30T09:09:40;-23182.59;;;0.45;96.20
29385;BME280;16367;48.736;9.218;2023-01-30T09:11:43;-23209.13;;;1.29;95.39
29385;BME280;16367;48.736;9.218;2023-01-30T09:13:48;-23232.09;;;2.01;89.72
29385;BME280;16367;48.736;9.218;2023-01-30T09:15:51;-23230.03;;;1.95;88.92
29385;BME280;16367;48.736;9.218;2023-01-30T09:17:54;-23222.50;;;1.71;89.08
29385;BME280;16367;48.736;9.218;2023-01-30T09:19:58;-23225.72;;;1.81;88.01
29385;BME280;16367;48.736;9.218;2023-01-30T09:22:01;-23239.13;;;2.23;86.21
29385;BME280;16367;48.736;9.218;2023-01-30T09:24:05;-23239.75;;;2.25;86.55
29385;BME280;16367;48.736;9.218;2023-01-30T09:26:08;-23214.53;;;1.46;91.10
29385;BME280;16367;48.736;9.218;2023-01-30T09:28:11;-23196.97;;;0.91;94.21
29385;BME280;16367;48.736;9.218;2023-01-30T09:30:14;-23203.03;;;1.10;94.23
29385;BME280;16367;48.736;9.218;2023-01-30T09:32:17;-23202.72;;;1.09;93.98
29385;BME280;16367;48.736;9.218;2023-01-30T09:34:19;-23205.91;;;1.19;95.01
29385;BME280;16367;48.736;9.218;2023-01-30T09:36:29;-23208.78;;;1.28;94.99
29385;BME280;16367;48.736;9.218;2023-01-30T09:38:32;-23201.59;;;1.05;95.60
29385;BME280;16367;48.736;9.218;2023-01-30T09:40:37;-23207.03;;;1.22;95.59
29385;BME280;16367;48.736;9.218;2023-01-30T09:43:05;-23205.13;;;1.16;96.09
29385;BME280;16367;48.736;9.218;2023-01-30T09:45:29;-23205.75;;;1.18;95.93
29385;BME280;16367;48.736;9.218;2023-01-30T09:47:40;-23208.16;;;1.26;96.22
29385;BME280;16367;48.736;9.218;2023-01-30T09:49:52;-23210.38;;;1.33;96.10
29385;BME280;16367;48.736;9.218;2023-01-30T09:52:03;-23212.94;;;1.41;96.17
29385;BME280;16367;48.736;9.218;2023-01-30T09:54:15;-23214.22;;;1.45;96.30
29385;BME280;16367;48.736;9.218;2023-01-30T09:56:20;-23216.13;;;1.51;95.90
29385;BME280;16367;48.736;9.218;2023-01-30T09:58:25;-23220.28;;;1.64;95.90
29385;BME280;16367;48.736;9.218;2023-01-30T10:00:34;-23223.78;;;1.75;95.04
29385;BME280;16367;48.736;9.218;2023-01-30T10:02:48;-23226.03;;;1.82;95.50
29385;BME280;16367;48.736;9.218;2023-01-30T10:04:53;-23225.38;;;1.80;95.36
29385;BME280;16367;48.736;9.218;2023-01-30T10:07:12;-23231.47;;;1.99;95.01
29385;BME280;16367;48.736;9.218;2023-01-30T10:09:28;-23236.41;;;2.15;94.03
29385;BME280;16367;48.736;9.218;2023-01-30T10:11:47;-23245.50;;;2.44;93.16
29385;BME280;16367;48.736;9.218;2023-01-30T10:14:01;-23243.25;;;2.37;92.20
29385;BME280;16367;48.736;9.218;2023-01-30T10:16:12;-23242.94;;;2.36;92.56
29385;BME280;16367;48.736;9.218;2023-01-30T10:18:39;-23245.81;;;2.45;92.78
29385;BME280;16367;48.736;9.218;2023-01-30T10:20:51;-23242.78;;;2.35;92.59
29385;BME280;16367;48.736;9.218;2023-01-30T10:23:11;-23244.38;;;2.40;92.59
29385;BME280;16367;48.736;9.218;2023-01-30T10:25:26;-23240.06;;;2.26;93.11
29385;BME280;16367;48.736;9.218;2023-01-30T10:27:31;-23239.75;;;2.25;93.19
29385;BME280;16367;48.736;9.218;2023-01-30T10:29:36;-23241.34;;;2.31;93.27
29385;BME280;16367;48.736;9.218;2023-01-30T10:31:44;-23237.84;;;2.19;93.42
29385;BME280;16367;48.736;9.218;2023-01-30T10:33:55;-23240.22;;;2.27;94.12
29385;BME280;16367;48.736;9.218;2023-01-30T10:36:03;-23239.75;;;2.25;94.54
29385;BME280;16367;48.736;9.218;2023-01-30T10:38:16;-23241.81;;;2.32;94.57
29385;BME280;16367;48.736;9.218;2023-01-30T10:40:26;-23240.38;;;2.28;95.41
29385;BME280;16367;48.736;9.218;2023-01-30T10:42:35;-23240.38;;;2.28;95.66
29385;BME280;16367;48.736;9.218;2023-01-30T10:44:41;-23243.56;;;2.38;96.29
29385;BME280;16367;48.736;9.218;2023-01-30T10:46:57;-23245.00;;;2.42;96.45
29385;BME280;16367;48.736;9.218;2023-01-30T10:49:04;-23249.00;;;2.55;96.98
29385;BME280;16367;48.736;9.218;2023-01-30T10:51:17;-23253.31;;;2.68;96.62
29385;BME280;16367;48.736;9.218;2023-01-30T10:53:30;-23253.47;;;2.69;95.71
29385;BME280;16367;48.736;9.218;2023-01-30T10:55:38;-23251.56;;;2.63;96.90